Time;durP1;ratioP1;P1;durP2;ratioP2;P2;SDS_P1;SDS_P2;PMS_P1;PMS_P2;Temp;Humidity;BMP_temperature;BMP_pressure;BME280_temperature;BME280_humidity;BME280_pressure;Samples;Min_cycle;Max_cycle;Signal;HPM_P1;HPM_P2
2023/04/12 00:01:00;;;;;;;11.90;2.97;;;8.10;99.90;;;;;;4972704;28;20513;-69
2023/04/12 00:03:25;;;;;;;12.52;2.97;;;8.10;99.90;;;;;;4957564;28;20621;-70
2023/04/12 00:05:54;;;;;;;14.27;4.20;;;8.10;99.90;;;;;;4976432;28;20201;-70
2023/04/12 00:08:32;;;;;;;8.52;3.33;;;8.20;99.90;;;;;;4973539;28;20038;-70
2023/04/12 00:10:59;;;;;;;15.35;3.42;;;8.20;99.90;;;;;;4974660;28;20113;-70
2023/04/12 00:13:25;;;;;;;14.65;3.58;;;8.20;99.90;;;;;;4978522;28;20066;-71
2023/04/12 00:15:50;;;;;;;15.80;3.28;;;8.30;99.90;;;;;;4942942;28;20158;-71
2023/04/12 00:18:16;;;;;;;9.48;3.20;;;8.30;99.90;;;;;;4951863;28;20053;-71
2023/04/12 00:20:42;;;;;;;10.18;3.33;;;8.30;99.90;;;;;;4961274;28;20499;-71
2023/04/12 00:23:12;;;;;;;12.38;3.20;;;8.30;99.90;;;;;;4976738;28;20042;-71
2023/04/12 00:25:38;;;;;;;13.07;3.22;;;8.40;99.90;;;;;;4972611;28;20066;-71
2023/04/12 00:28:05;;;;;;;9.15;3.00;;;8.30;99.90;;;;;;4971087;28;20549;-68
2023/04/12 00:30:31;;;;;;;12.00;3.78;;;8.30;99.90;;;;;;4973041;28;20034;-68
2023/04/12 00:32:57;;;;;;;12.45;3.25;;;8.20;99.90;;;;;;4974176;28;20050;-69
2023/04/12 00:35:23;;;;;;;11.10;3.35;;;8.20;99.90;;;;;;4957027;28;20046;-69
2023/04/12 00:37:49;;;;;;;8.40;3.15;;;8.20;99.90;;;;;;4962171;28;20103;-69
2023/04/12 00:40:15;;;;;;;10.48;3.28;;;8.20;99.90;;;;;;4980949;28;20533;-69
2023/04/12 00:42:40;;;;;;;10.60;2.92;;;8.10;99.90;;;;;;4977741;28;20062;-69
2023/04/12 00:45:07;;;;;;;14.50;3.13;;;8.20;99.90;;;;;;4954280;28;20565;-70
2023/04/12 00:47:36;;;;;;;13.98;3.78;;;8.20;99.90;;;;;;4973417;28;20693;-69
2023/04/12 00:50:03;;;;;;;9.23;2.58;;;8.20;99.90;;;;;;4973805;28;20047;-70
2023/04/12 00:52:33;;;;;;;11.52;3.17;;;8.20;99.90;;;;;;4972566;28;22346;-70
2023/04/12 00:55:00;;;;;;;11.60;2.78;;;8.20;99.90;;;;;;4972833;28;20417;-71
2023/04/12 00:57:26;;;;;;;8.98;2.97;;;8.20;99.90;;;;;;4971169;28;20045;-69
2023/04/12 00:59:52;;;;;;;9.98;2.65;;;8.20;99.90;;;;;;4955884;28;20261;-70
2023/04/12 01:02:18;;;;;;;9.65;3.03;;;8.20;99.90;;;;;;4972702;28;20095;-70
2023/04/12 01:04:44;;;;;;;7.05;3.22;;;8.20;99.90;;;;;;4972496;28;20050;-70
2023/04/12 01:07:28;;;;;;;11.82;3.05;;;8.20;99.90;;;;;;4973963;28;20046;-70
2023/04/12 01:10:13;;;;;;;9.15;2.90;;;8.20;99.90;;;;;;4977040;28;20038;-71
2023/04/12 01:13:08;;;;;;;10.23;3.20;;;8.20;99.90;;;;;;4959664;28;20038;-71
2023/04/12 01:15:38;;;;;;;9.63;3.47;;;8.20;99.90;;;;;;4952803;28;20057;-70
2023/04/12 01:18:08;;;;;;;12.30;3.58;;;8.20;99.90;;;;;;4938504;28;20058;-70
2023/04/12 01:20:47;;;;;;;10.18;2.83;;;8.20;99.90;;;;;;4941010;28;20114;-71
2023/04/12 01:24:03;;;;;;;9.55;3.42;;;8.20;99.90;;;;;;4970610;28;20126;-70
2023/04/12 01:26:35;;;;;;;11.68;3.38;;;8.20;99.90;;;;;;4954811;28;20405;-70
2023/04/12 01:29:06;;;;;;;9.88;2.70;;;8.20;99.90;;;;;;4940956;28;20050;-71
2023/04/12 01:31:33;;;;;;;8.98;2.50;;;8.10;99.90;;;;;;4971194;28;20041;-71
2023/04/12 01:34:02;;;;;;;15.95;3.05;;;8.10;99.90;;;;;;4940988;28;20139;-70
2023/04/12 01:36:29;;;;;;;9.25;2.80;;;8.10;99.90;;;;;;4972308;28;20675;-70
2023/04/12 01:38:56;;;;;;;11.07;3.47;;;8.10;99.90;;;;;;4976720;28;20437;-70
2023/04/12 01:41:22;;;;;;;13.38;2.75;;;8.10;99.90;;;;;;4973739;28;20085;-71
2023/04/12 01:43:48;;;;;;;11.43;2.38;;;8.10;99.90;;;;;;4957667;28;21807;-69
2023/04/12 01:46:20;;;;;;;7.50;2.63;;;8.10;99.90;;;;;;4970952;28;20073;-69
2023/04/12 01:48:51;;;;;;;8.07;2.20;;;8.10;99.90;;;;;;4972917;28;20050;-69
2023/04/12 01:51:45;;;;;;;7.50;2.45;;;8.10;99.90;;;;;;4972739;28;20182;-71
2023/04/12 01:54:16;;;;;;;7.25;2.75;;;8.20;99.90;;;;;;4977856;28;20042;-71
2023/04/12 01:56:47;;;;;;;8.70;2.38;;;8.10;99.90;;;;;;4978946;28;20070;-70
2023/04/12 01:59:14;;;;;;;10.15;2.33;;;8.10;99.90;;;;;;4972891;28;20046;-70
2023/04/12 02:01:41;;;;;;;8.95;2.85;;;8.10;99.90;;;;;;4973194;28;20097;-71
2023/04/12 02:04:08;;;;;;;7.88;2.67;;;8.20;99.90;;;;;;4951255;28;20755;-71
2023/04/12 02:06:34;;;;;;;11.38;3.05;;;8.10;99.90;;;;;;4967862;28;20046;-70
2023/04/12 02:09:06;;;;;;;9.65;2.95;;;8.20;99.90;;;;;;4973399;28;20140;-70
2023/04/12 02:11:33;;;;;;;10.85;2.60;;;8.20;99.90;;;;;;4974735;28;20137;-69
2023/04/12 02:13:59;;;;;;;9.77;2.55;;;8.20;99.90;;;;;;4975217;28;20101;-69
2023/04/12 02:16:27;;;;;;;9.45;2.17;;;8.20;99.90;;;;;;4953355;28;20050;-70
2023/04/12 02:18:55;;;;;;;12.80;2.90;;;8.20;99.90;;;;;;4954134;28;20060;-70
2023/04/12 02:21:20;;;;;;;5.15;2.17;;;8.10;99.90;;;;;;4972154;28;20509;-70
2023/04/12 02:23:47;;;;;;;5.85;2.10;;;8.10;99.90;;;;;;4972142;28;20134;-70
2023/04/12 02:26:12;;;;;;;5.80;2.35;;;8.10;99.90;;;;;;4954057;28;20046;-70
2023/04/12 02:28:38;;;;;;;7.40;2.22;;;8.20;99.90;;;;;;4975305;28;20367;-70
2023/04/12 02:31:05;;;;;;;9.75;3.40;;;8.20;99.90;;;;;;4974065;28;20050;-70
2023/04/12 02:33:31;;;;;;;10.43;3.33;;;8.10;99.90;;;;;;4973636;28;20058;-70
2023/04/12 02:35:58;;;;;;;11.60;2.78;;;8.20;99.90;;;;;;4963605;28;20049;-70
2023/04/12 02:38:23;;;;;;;11.80;2.83;;;8.10;99.90;;;;;;4964551;28;20250;-70
2023/04/12 02:40:49;;;;;;;9.38;2.85;;;8.20;99.90;;;;;;4978627;28;20122;-69
2023/04/12 02:43:15;;;;;;;7.72;2.78;;;8.20;99.90;;;;;;4959903;28;20058;-69
2023/04/12 02:45:41;;;;;;;7.53;2.70;;;8.20;99.90;;;;;;4976868;28;20030;-70
2023/04/12 02:48:06;;;;;;;8.00;2.45;;;8.20;99.90;;;;;;4943598;28;20083;-69
2023/04/12 02:50:32;;;;;;;13.20;2.45;;;8.10;99.90;;;;;;4974277;28;20133;-70
2023/04/12 02:52:58;;;;;;;9.63;3.05;;;8.20;99.90;;;;;;4974902;28;20161;-69
2023/04/12 02:55:24;;;;;;;7.80;2.22;;;8.20;99.90;;;;;;4977283;28;20056;-70
2023/04/12 02:57:50;;;;;;;10.73;3.50;;;8.20;99.90;;;;;;4977714;28;20042;-70
2023/04/12 03:00:16;;;;;;;5.93;2.67;;;8.20;99.90;;;;;;4960192;28;20141;-69
2023/04/12 03:02:43;;;;;;;8.95;3.33;;;8.20;99.90;;;;;;4977120;28;20050;-69
2023/04/12 03:05:09;;;;;;;7.90;2.72;;;8.20;99.90;;;;;;4982980;28;20078;-69
2023/04/12 03:07:35;;;;;;;6.65;2.60;;;8.20;99.90;;;;;;4980410;28;20050;-69
2023/04/12 03:10:01;;;;;;;10.10;3.20;;;8.20;99.90;;;;;;4984923;28;20283;-69
2023/04/12 03:12:27;;;;;;;9.32;2.95;;;8.20;99.90;;;;;;4967525;28;20968;-69
2023/04/12 03:14:53;;;;;;;8.05;3.30;;;8.10;99.90;;;;;;4966741;28;20108;-69
2023/04/12 03:17:19;;;;;;;7.32;2.50;;;8.20;99.90;;;;;;4964466;28;20046;-69
2023/04/12 03:19:45;;;;;;;7.75;2.88;;;8.10;99.90;;;;;;4979275;28;20043;-69
2023/04/12 03:22:10;;;;;;;4.68;2.20;;;8.10;99.90;;;;;;4974605;28;20038;-70
2023/04/12 03:24:36;;;;;;;9.98;3.83;;;8.10;99.90;;;;;;4976479;28;20617;-70
2023/04/12 03:27:03;;;;;;;6.30;2.75;;;8.10;99.90;;;;;;4958335;28;20563;-70
2023/04/12 03:29:29;;;;;;;7.05;2.88;;;8.10;99.90;;;;;;4960215;28;20050;-70
2023/04/12 03:31:57;;;;;;;6.70;3.03;;;8.10;99.90;;;;;;4976531;28;20038;-70
2023/04/12 03:34:23;;;;;;;8.52;3.10;;;8.10;99.90;;;;;;4976061;28;20081;-70
2023/04/12 03:36:50;;;;;;;5.90;3.08;;;8.10;99.90;;;;;;4958540;28;20050;-70
2023/04/12 03:39:15;;;;;;;9.88;3.10;;;8.00;99.90;;;;;;4957806;28;20465;-70
2023/04/12 03:41:41;;;;;;;7.90;2.60;;;8.10;99.90;;;;;;4957129;28;20164;-71
2023/04/12 03:44:07;;;;;;;8.65;2.60;;;8.00;99.90;;;;;;4960043;28;20053;-72
2023/04/12 03:46:33;;;;;;;7.85;3.15;;;8.00;99.90;;;;;;4976097;28;20422;-70
2023/04/12 03:48:59;;;;;;;9.20;3.17;;;8.00;99.90;;;;;;4960235;28;20070;-70
2023/04/12 03:51:25;;;;;;;10.48;3.55;;;8.00;99.90;;;;;;4976998;28;20038;-71
2023/04/12 03:53:53;;;;;;;9.65;3.40;;;8.00;99.90;;;;;;4981461;28;20050;-71
2023/04/12 03:56:19;;;;;;;5.57;3.25;;;8.00;99.90;;;;;;4981304;28;20478;-71
2023/04/12 03:58:45;;;;;;;7.40;3.83;;;7.90;99.90;;;;;;4976428;28;20039;-71
2023/04/12 04:01:12;;;;;;;9.32;4.32;;;8.00;99.90;;;;;;4976631;28;20062;-72
2023/04/12 04:03:41;;;;;;;10.98;3.55;;;7.90;99.90;;;;;;4974356;28;20393;-71
2023/04/12 04:06:07;;;;;;;7.70;3.60;;;7.90;99.90;;;;;;4975799;28;20042;-71
2023/04/12 04:08:33;;;;;;;11.10;3.25;;;7.90;99.90;;;;;;4958671;28;20121;-71
2023/04/12 04:10:59;;;;;;;7.68;3.42;;;7.90;99.90;;;;;;4942462;28;20149;-71
2023/04/12 04:13:25;;;;;;;10.57;3.78;;;7.90;99.90;;;;;;4958060;28;20062;-70
2023/04/12 04:16:02;;;;;;;9.18;3.50;;;7.90;99.90;;;;;;4977230;28;20133;-71
2023/04/12 04:18:27;;;;;;;6.65;3.42;;;7.90;99.90;;;;;;4979679;28;20407;-71
2023/04/12 04:20:54;;;;;;;11.43;3.78;;;7.90;99.90;;;;;;4975690;28;20058;-71
2023/04/12 04:23:19;;;;;;;11.07;4.45;;;7.80;99.90;;;;;;4960757;28;20042;-70
2023/04/12 04:25:45;;;;;;;11.63;4.18;;;7.90;99.90;;;;;;4958570;28;20070;-71
2023/04/12 04:28:11;;;;;;;13.40;3.45;;;7.80;99.90;;;;;;4974342;28;20058;-71
2023/04/12 04:30:40;;;;;;;7.30;3.47;;;7.90;99.90;;;;;;4976245;28;20046;-71
2023/04/12 04:33:06;;;;;;;10.77;3.83;;;7.80;99.90;;;;;;4963042;28;20157;-72
2023/04/12 04:35:32;;;;;;;9.30;3.42;;;7.80;99.90;;;;;;4955903;28;20671;-71
2023/04/12 04:37:59;;;;;;;6.55;2.80;;;7.80;99.90;;;;;;4956012;28;20050;-71
2023/04/12 04:40:25;;;;;;;5.68;2.80;;;7.80;99.90;;;;;;4969595;28;20057;-71
2023/04/12 04:42:53;;;;;;;11.85;4.18;;;7.80;99.90;;;;;;4955681;28;20490;-71
2023/04/12 04:45:26;;;;;;;7.50;3.53;;;7.80;99.90;;;;;;4958270;28;20125;-72
2023/04/12 04:47:55;;;;;;;3.83;2.20;;;7.80;99.90;;;;;;4972202;28;20660;-71
2023/04/12 04:50:23;;;;;;;9.27;3.22;;;7.80;99.90;;;;;;4954195;28;21138;-72
2023/04/12 04:52:49;;;;;;;7.40;3.08;;;7.80;99.90;;;;;;4973556;28;20042;-72
2023/04/12 04:55:19;;;;;;;9.07;2.72;;;7.80;99.90;;;;;;4940256;28;20394;-72
2023/04/12 04:57:45;;;;;;;9.18;3.10;;;7.80;99.90;;;;;;4956163;28;20310;-73
2023/04/12 05:00:15;;;;;;;9.27;3.55;;;7.80;99.90;;;;;;4975394;28;20424;-73
2023/04/12 05:02:41;;;;;;;6.65;2.85;;;7.80;99.90;;;;;;4972427;28;20397;-72
2023/04/12 05:05:09;;;;;;;10.27;3.10;;;7.80;99.90;;;;;;4954543;28;20074;-72
2023/04/12 05:07:35;;;;;;;8.25;3.30;;;7.80;99.90;;;;;;4953378;28;20079;-75
2023/04/12 05:10:03;;;;;;;9.77;3.33;;;7.80;99.90;;;;;;4945382;28;20046;-73
2023/04/12 05:12:28;;;;;;;7.65;3.20;;;7.80;99.90;;;;;;4975927;28;20056;-72
2023/04/12 05:14:54;;;;;;;9.90;3.28;;;7.80;99.90;;;;;;4959942;28;20421;-72
2023/04/12 05:17:20;;;;;;;7.70;2.67;;;7.80;99.90;;;;;;4979535;28;20046;-72
2023/04/12 05:19:45;;;;;;;11.15;3.25;;;7.80;99.90;;;;;;4977844;28;20046;-72
2023/04/12 05:22:12;;;;;;;8.40;3.20;;;7.80;99.90;;;;;;4975040;28;20577;-72
2023/04/12 05:24:38;;;;;;;6.95;2.80;;;7.80;99.90;;;;;;4983161;28;20034;-72
2023/04/12 05:27:04;;;;;;;7.78;3.55;;;7.80;99.90;;;;;;4960774;28;20634;-72
2023/04/12 05:29:30;;;;;;;6.85;3.15;;;7.80;99.90;;;;;;4955721;28;20077;-71
2023/04/12 05:31:57;;;;;;;7.35;3.22;;;7.80;99.90;;;;;;4976227;28;20051;-72
2023/04/12 05:34:23;;;;;;;8.85;3.60;;;7.80;99.90;;;;;;4975107;28;20702;-72
2023/04/12 05:36:49;;;;;;;9.73;3.42;;;7.80;99.90;;;;;;4975100;28;20054;-71
2023/04/12 05:39:15;;;;;;;6.78;3.65;;;7.70;99.90;;;;;;4960619;28;20049;-71
2023/04/12 05:41:40;;;;;;;11.98;4.32;;;7.80;99.90;;;;;;4974619;28;20054;-71
2023/04/12 05:44:06;;;;;;;8.95;3.47;;;7.70;99.90;;;;;;4963098;28;20039;-72
2023/04/12 05:46:32;;;;;;;7.28;3.80;;;7.70;99.90;;;;;;4963844;28;20042;-70
2023/04/12 05:48:58;;;;;;;9.48;4.40;;;7.70;99.90;;;;;;4973954;28;20062;-72
2023/04/12 05:51:23;;;;;;;12.02;4.10;;;7.80;99.90;;;;;;4942236;28;20061;-72
2023/04/12 05:53:49;;;;;;;11.70;4.10;;;7.70;99.90;;;;;;4964201;28;20046;-71
2023/04/12 05:56:15;;;;;;;9.52;3.88;;;7.70;99.90;;;;;;4943743;28;20042;-73
2023/04/12 05:58:41;;;;;;;7.82;4.80;;;7.70;99.90;;;;;;4977011;28;20735;-74
2023/04/12 06:01:07;;;;;;;13.40;5.20;;;7.80;99.90;;;;;;4962345;28;20097;-73
2023/04/12 06:03:32;;;;;;;11.75;5.22;;;7.80;99.90;;;;;;4976762;28;20057;-74
2023/04/12 06:05:58;;;;;;;9.88;5.00;;;7.70;99.90;;;;;;4979846;28;20974;-73
2023/04/12 06:08:23;;;;;;;11.10;5.07;;;7.70;99.90;;;;;;4978396;28;20054;-73
2023/04/12 06:10:49;;;;;;;9.35;4.72;;;7.70;99.90;;;;;;4950119;28;20061;-73
2023/04/12 06:13:15;;;;;;;7.65;4.60;;;7.70;99.90;;;;;;4968184;28;20043;-72
2023/04/12 06:15:40;;;;;;;8.43;4.95;;;7.70;99.90;;;;;;4979044;28;20069;-73
2023/04/12 06:18:06;;;;;;;7.47;4.80;;;7.80;99.90;;;;;;4983171;28;20066;-73
2023/04/12 06:20:32;;;;;;;10.05;5.43;;;7.80;99.90;;;;;;4982890;28;20698;-73
2023/04/12 06:22:58;;;;;;;11.82;5.13;;;7.80;99.90;;;;;;4980697;28;20042;-73
2023/04/12 06:25:23;;;;;;;9.32;4.95;;;7.80;99.90;;;;;;4982977;28;20396;-73
2023/04/12 06:27:49;;;;;;;10.32;6.15;;;7.80;99.90;;;;;;4981591;28;20046;-73
2023/04/12 06:30:15;;;;;;;8.15;5.88;;;7.80;99.90;;;;;;4965056;28;20055;-73
2023/04/12 06:32:41;;;;;;;11.02;6.50;;;7.90;99.90;;;;;;4960584;28;20055;-74
2023/04/12 06:35:07;;;;;;;12.73;7.15;;;7.80;99.90;;;;;;4984550;28;20526;-73
2023/04/12 06:37:32;;;;;;;9.60;6.15;;;7.80;99.90;;;;;;4964715;28;20588;-75
2023/04/12 06:39:58;;;;;;;9.60;6.55;;;7.90;99.90;;;;;;4982139;28;20109;-74
2023/04/12 06:42:24;;;;;;;9.40;6.30;;;7.80;99.90;;;;;;4961567;28;20046;-74
2023/04/12 06:44:49;;;;;;;10.15;6.32;;;7.90;99.90;;;;;;4986434;28;20050;-74
2023/04/12 06:47:15;;;;;;;11.02;6.07;;;7.90;99.90;;;;;;4965271;28;20066;-75
2023/04/12 06:49:41;;;;;;;8.73;5.82;;;7.90;99.90;;;;;;4982328;28;20386;-74
2023/04/12 06:52:07;;;;;;;11.27;6.68;;;7.90;99.90;;;;;;4979776;28;20046;-74
2023/04/12 06:54:36;;;;;;;10.43;6.55;;;7.90;99.90;;;;;;4962878;28;20117;-74
2023/04/12 06:57:01;;;;;;;8.80;6.15;;;7.90;99.90;;;;;;4980817;28;20046;-74
2023/04/12 06:59:27;;;;;;;8.60;6.43;;;7.90;99.90;;;;;;4987558;28;20038;-74
2023/04/12 07:01:53;;;;;;;8.93;5.47;;;7.90;99.90;;;;;;4984667;28;20042;-75
2023/04/12 07:04:19;;;;;;;8.35;5.43;;;7.90;99.90;;;;;;4965741;28;20042;-75
2023/04/12 07:06:45;;;;;;;10.82;6.25;;;7.90;99.90;;;;;;4981636;28;20053;-74
2023/04/12 07:09:10;;;;;;;9.95;5.53;;;7.90;99.90;;;;;;4979595;28;20047;-73
2023/04/12 07:11:36;;;;;;;8.35;4.32;;;7.90;99.90;;;;;;4963695;28;20069;-74
2023/04/12 07:14:02;;;;;;;7.57;4.82;;;7.90;99.90;;;;;;4964753;28;20141;-74
2023/04/12 07:16:30;;;;;;;9.27;5.00;;;7.90;99.90;;;;;;4965014;28;20042;-72
2023/04/12 07:18:55;;;;;;;8.57;4.60;;;7.90;99.90;;;;;;4960803;28;20295;-73
2023/04/12 07:21:21;;;;;;;6.80;4.68;;;8.00;99.90;;;;;;4979658;28;20261;-71
2023/04/12 07:23:50;;;;;;;10.75;4.93;;;8.00;99.90;;;;;;4986807;28;20069;-73
2023/04/12 07:26:16;;;;;;;8.80;4.47;;;8.00;99.90;;;;;;4987642;28;20054;-73
2023/04/12 07:28:42;;;;;;;7.35;4.25;;;8.00;99.90;;;;;;4989179;28;20042;-73
2023/04/12 07:31:07;;;;;;;7.32;4.50;;;8.00;99.90;;;;;;4989081;28;20038;-74
2023/04/12 07:33:34;;;;;;;7.55;4.80;;;8.00;99.90;;;;;;4988323;28;20159;-74
2023/04/12 07:36:02;;;;;;;9.27;4.63;;;8.00;99.90;;;;;;4986160;28;20446;-85
2023/04/12 07:38:28;;;;;;;9.27;4.80;;;8.00;99.90;;;;;;4955416;28;20053;-82
2023/04/12 07:40:55;;;;;;;5.93;4.03;;;8.10;99.90;;;;;;4970538;28;20042;-83
2023/04/12 07:43:21;;;;;;;8.70;4.63;;;8.10;99.90;;;;;;4985502;28;20100;-82
2023/04/12 07:45:47;;;;;;;8.73;5.10;;;8.10;99.90;;;;;;4982801;28;20174;-83
2023/04/12 07:48:13;;;;;;;9.63;4.80;;;8.20;99.90;;;;;;4979574;28;21915;-80
2023/04/12 07:50:40;;;;;;;9.45;4.38;;;8.20;99.90;;;;;;4962149;28;20588;-79
2023/04/12 07:53:25;;;;;;;9.65;4.68;;;8.20;99.90;;;;;;4982381;28;20042;-80
2023/04/12 07:55:51;;;;;;;6.15;4.40;;;8.20;99.90;;;;;;4978959;28;20046;-83
2023/04/12 07:58:18;;;;;;;9.60;5.90;;;8.20;99.90;;;;;;4982802;28;20499;-82
2023/04/12 08:00:47;;;;;;;9.57;5.03;;;8.30;99.90;;;;;;4984997;28;20043;-87
2023/04/12 08:03:17;;;;;;;8.00;4.40;;;8.30;99.90;;;;;;4945477;28;20042;-87
2023/04/12 08:05:43;;;;;;;10.77;4.25;;;8.20;99.90;;;;;;4972881;28;20133;-88
2023/04/12 08:08:10;;;;;;;8.77;5.07;;;8.30;99.90;;;;;;4982590;28;20061;-86
2023/04/12 08:10:37;;;;;;;8.25;5.22;;;8.20;99.90;;;;;;4964786;28;20046;-88
2023/04/12 08:13:04;;;;;;;10.02;5.32;;;8.30;99.90;;;;;;4984782;28;20057;-89
2023/04/12 08:15:29;;;;;;;10.32;5.10;;;8.30;99.90;;;;;;4990784;28;20042;-92
2023/04/12 08:17:55;;;;;;;12.15;5.57;;;8.30;99.90;;;;;;4968370;28;20397;-87
2023/04/12 08:20:21;;;;;;;7.13;4.88;;;8.40;99.90;;;;;;4965304;28;20054;-87
2023/04/12 08:22:51;;;;;;;9.93;4.93;;;8.40;99.90;;;;;;4963559;28;20651;-84
2023/04/12 08:25:16;;;;;;;8.13;4.80;;;8.40;99.90;;;;;;4962143;28;20055;-81
2023/04/12 08:27:42;;;;;;;11.80;6.45;;;8.40;99.90;;;;;;4962779;28;20046;-79
2023/04/12 08:30:11;;;;;;;11.73;5.63;;;8.50;99.90;;;;;;4980808;28;20046;-80
2023/04/12 08:32:38;;;;;;;9.40;5.38;;;8.60;99.90;;;;;;4961650;28;20497;-82
2023/04/12 08:35:05;;;;;;;10.68;5.70;;;8.80;99.90;;;;;;4964543;28;20103;-80
2023/04/12 08:37:30;;;;;;;12.10;6.10;;;8.90;99.90;;;;;;4952656;28;20053;-83
2023/04/12 08:39:59;;;;;;;13.18;6.00;;;9.10;99.90;;;;;;4959486;28;20038;-83
2023/04/12 08:42:26;;;;;;;15.10;5.45;;;9.40;99.90;;;;;;4961818;28;20062;-83
2023/04/12 08:44:52;;;;;;;12.55;5.22;;;9.50;99.90;;;;;;4979108;28;20042;-85
2023/04/12 08:47:19;;;;;;;13.77;5.05;;;9.60;99.90;;;;;;4978752;28;20410;-82
2023/04/12 08:49:45;;;;;;;19.88;4.97;;;9.70;99.90;;;;;;4964059;28;20061;-82
2023/04/12 08:52:11;;;;;;;22.15;4.20;;;9.80;99.90;;;;;;4980942;28;20353;-82
2023/04/12 08:54:37;;;;;;;11.90;3.50;;;9.90;99.90;;;;;;4983221;28;20035;-82
2023/04/12 08:57:05;;;;;;;15.27;3.33;;;9.90;99.90;;;;;;4986028;28;20057;-82
2023/04/12 08:59:35;;;;;;;16.05;3.60;;;10.00;99.90;;;;;;4982067;28;20369;-82
2023/04/12 09:02:01;;;;;;;11.93;2.60;;;10.20;99.90;;;;;;4979556;28;20258;-83
2023/04/12 09:04:26;;;;;;;12.52;2.65;;;10.30;99.90;;;;;;4958229;28;20780;-82
2023/04/12 09:06:52;;;;;;;16.40;2.85;;;10.30;99.90;;;;;;4957285;28;20042;-85
2023/04/12 09:09:18;;;;;;;13.45;2.40;;;10.30;99.90;;;;;;4945556;28;20173;-83
2023/04/12 09:11:44;;;;;;;13.95;3.58;;;10.40;99.90;;;;;;4983023;28;20048;-83
2023/04/12 09:14:23;;;;;;;18.02;2.92;;;10.50;99.90;;;;;;4961365;28;20565;-84
2023/04/12 09:16:49;;;;;;;14.90;2.97;;;10.80;99.90;;;;;;4966783;28;20577;-83
2023/04/12 09:19:15;;;;;;;15.98;2.70;;;10.90;99.90;;;;;;4982045;28;20054;-81
2023/04/12 09:22:07;;;;;;;14.20;2.28;;;11.20;99.90;;;;;;4961595;28;20494;-82
2023/04/12 09:24:45;;;;;;;17.73;2.75;;;11.40;99.90;;;;;;4962177;28;20046;-83
2023/04/12 09:27:11;;;;;;;13.23;2.63;;;11.50;99.90;;;;;;4981803;28;20038;-82
2023/04/12 09:29:36;;;;;;;16.33;2.38;;;11.40;99.90;;;;;;4964140;28;20519;-84
2023/04/12 09:32:02;;;;;;;17.00;2.70;;;11.40;99.90;;;;;;4979854;28;20451;-83
2023/04/12 09:34:28;;;;;;;16.38;2.60;;;11.40;99.90;;;;;;4963744;28;20052;-85
2023/04/12 09:36:54;;;;;;;13.98;3.13;;;11.40;99.90;;;;;;4966400;28;20054;-86
2023/04/12 09:39:30;;;;;;;12.50;2.58;;;11.60;99.90;;;;;;4965739;28;20046;-86
2023/04/12 09:42:10;;;;;;;16.58;2.75;;;11.60;99.90;;;;;;4978741;28;20058;-83
2023/04/12 09:44:36;;;;;;;16.17;2.70;;;11.70;99.90;;;;;;4966028;28;20158;-83
2023/04/12 09:47:05;;;;;;;16.20;2.80;;;11.70;99.90;;;;;;4950394;28;20046;-85
2023/04/12 09:49:42;;;;;;;14.20;2.80;;;11.90;99.90;;;;;;4980631;28;20077;-81
2023/04/12 09:52:12;;;;;;;13.82;2.65;;;12.10;99.90;;;;;;4980748;28;20049;-80
2023/04/12 09:54:45;;;;;;;15.20;3.15;;;12.20;99.90;;;;;;4966698;28;20056;-81
2023/04/12 09:57:12;;;;;;;16.55;2.78;;;12.30;99.90;;;;;;4988820;28;20081;-80
2023/04/12 09:59:42;;;;;;;15.98;3.22;;;12.40;99.90;;;;;;4982789;28;20042;-81
2023/04/12 10:02:17;;;;;;;13.75;2.67;;;12.40;99.90;;;;;;4969005;28;20090;-81
2023/04/12 10:04:44;;;;;;;20.83;4.22;;;12.30;99.90;;;;;;4966747;28;20045;-81
2023/04/12 10:07:11;;;;;;;15.43;3.10;;;12.00;99.90;;;;;;4983976;28;20461;-81
2023/04/12 10:09:39;;;;;;;16.23;3.10;;;11.80;99.90;;;;;;4962083;28;20081;-82
2023/04/12 10:12:06;;;;;;;20.65;4.13;;;11.70;99.90;;;;;;4983528;28;20523;-81
2023/04/12 10:14:32;;;;;;;10.20;2.08;;;11.70;99.90;;;;;;4984414;28;20096;-81
2023/04/12 10:17:00;;;;;;;17.30;3.30;;;11.60;99.90;;;;;;4962831;28;20054;-81
2023/04/12 10:19:30;;;;;;;16.30;2.42;;;11.50;99.90;;;;;;4979505;28;20056;-82
2023/04/12 10:21:56;;;;;;;12.15;2.78;;;11.60;99.90;;;;;;4974310;28;20038;-81
2023/04/12 10:24:26;;;;;;;14.38;2.40;;;11.70;99.90;;;;;;4980202;28;20517;-81
2023/04/12 10:26:59;;;;;;;13.40;2.83;;;11.80;99.90;;;;;;4950318;28;20057;-80
2023/04/12 10:29:35;;;;;;;10.63;2.47;;;11.70;99.90;;;;;;4977223;28;20122;-81
2023/04/12 10:32:20;;;;;;;12.35;2.15;;;11.70;99.90;;;;;;4982620;28;20065;-80
2023/04/12 10:34:57;;;;;;;13.25;2.47;;;11.80;99.90;;;;;;4982900;28;20078;-81
2023/04/12 10:38:01;;;;;;;13.90;2.17;;;11.80;99.90;;;;;;4977595;28;20096;-82
2023/04/12 10:40:32;;;;;;;10.90;2.35;;;11.90;99.90;;;;;;4957140;28;20145;-81
2023/04/12 10:43:23;;;;;;;5.88;1.90;;;11.90;99.90;;;;;;4978393;28;20072;-83
2023/04/12 10:45:49;;;;;;;8.45;2.13;;;11.90;99.90;;;;;;4965949;28;20405;-82
2023/04/12 10:48:38;;;;;;;14.15;2.65;;;11.90;99.90;;;;;;4964667;28;20057;-82
2023/04/12 10:51:22;;;;;;;15.40;2.60;;;11.80;99.90;;;;;;4965509;28;20073;-81
2023/04/12 10:53:49;;;;;;;15.68;2.70;;;11.80;99.90;;;;;;4966431;28;20049;-82
2023/04/12 10:56:30;;;;;;;14.38;2.67;;;11.80;99.90;;;;;;4979018;28;20587;-83
2023/04/12 10:59:01;;;;;;;13.65;2.60;;;11.90;99.90;;;;;;4984159;28;20112;-82
2023/04/12 11:01:28;;;;;;;10.07;2.13;;;11.90;99.90;;;;;;4963713;28;20061;-82
2023/04/12 11:04:16;;;;;;;14.88;2.58;;;11.90;99.90;;;;;;4965123;28;20042;-83
2023/04/12 11:06:51;;;;;;;14.98;2.58;;;11.80;99.90;;;;;;4944003;28;20069;-82
2023/04/12 11:09:20;;;;;;;14.60;2.95;;;11.90;99.90;;;;;;4978198;28;20054;-81
2023/04/12 11:11:47;;;;;;;13.48;2.83;;;12.00;99.90;;;;;;4975991;28;20046;-81
2023/04/12 11:14:17;;;;;;;16.15;3.38;;;12.10;99.90;;;;;;4946623;28;20053;-82
2023/04/12 11:17:04;;;;;;;14.10;3.72;;;12.20;99.90;;;;;;4947891;28;20109;-83
2023/04/12 11:19:31;;;;;;;20.30;3.45;;;12.20;99.90;;;;;;4960992;28;20112;-81
2023/04/12 11:22:00;;;;;;;14.35;2.60;;;12.10;99.90;;;;;;4966499;28;20062;-83
2023/04/12 11:24:26;;;;;;;16.80;3.05;;;12.10;99.90;;;;;;5019724;23;20050;-85
2023/04/12 11:26:52;;;;;;;10.63;2.33;;;12.10;99.90;;;;;;4981495;28;20137;-85
2023/04/12 11:29:25;;;;;;;15.55;4.15;;;12.10;99.90;;;;;;4968812;28;20058;-82
2023/04/12 11:31:51;;;;;;;12.88;3.22;;;12.20;99.90;;;;;;4984447;28;20043;-83
2023/04/12 11:34:18;;;;;;;13.25;2.63;;;12.20;99.90;;;;;;4978793;28;20055;-83
2023/04/12 11:36:49;;;;;;;19.60;3.22;;;12.10;99.90;;;;;;4977914;28;20491;-85
2023/04/12 11:39:15;;;;;;;14.63;3.45;;;12.10;99.90;;;;;;4987770;28;20561;-84
2023/04/12 11:41:45;;;;;;;16.75;2.90;;;12.30;99.90;;;;;;4976587;28;20082;-85
2023/04/12 11:44:12;;;;;;;13.32;3.38;;;12.30;99.90;;;;;;4980339;28;20047;-84
2023/04/12 11:46:38;;;;;;;13.35;2.70;;;12.50;99.90;;;;;;4981901;28;20045;-84
2023/04/12 11:49:04;;;;;;;15.82;3.47;;;12.60;99.90;;;;;;4981389;28;20100;-84
2023/04/12 11:51:31;;;;;;;10.77;2.90;;;12.60;99.90;;;;;;4976226;28;20518;-86
2023/04/12 11:53:57;;;;;;;14.23;2.25;;;12.70;99.90;;;;;;4975876;28;20438;-86
2023/04/12 11:56:24;;;;;;;12.35;2.58;;;12.80;99.90;;;;;;4980499;28;20118;-85
2023/04/12 11:58:49;;;;;;;9.25;2.10;;;12.70;99.90;;;;;;4975914;28;20074;-86
2023/04/12 12:01:17;;;;;;;14.07;3.05;;;12.80;99.90;;;;;;4984363;28;20081;-86
2023/04/12 12:03:43;;;;;;;8.00;2.15;;;12.90;99.90;;;;;;4965168;28;20126;-87
2023/04/12 12:06:10;;;;;;;16.13;2.40;;;13.00;99.90;;;;;;4962585;28;20047;-87
2023/04/12 12:08:36;;;;;;;9.95;2.22;;;13.10;99.90;;;;;;4960138;28;20046;-85
2023/04/12 12:11:02;;;;;;;9.38;1.92;;;13.00;99.90;;;;;;4961883;28;20039;-85
2023/04/12 12:13:46;;;;;;;12.60;2.42;;;13.00;99.90;;;;;;4941854;28;20054;-78
2023/04/12 12:16:13;;;;;;;9.40;2.88;;;13.20;99.90;;;;;;4961905;28;20045;-78
2023/04/12 12:18:40;;;;;;;5.75;1.98;;;13.50;99.90;;;;;;4961304;28;20531;-78
2023/04/12 12:21:08;;;;;;;13.45;2.70;;;13.80;99.90;;;;;;4957772;28;20391;-80
2023/04/12 12:23:34;;;;;;;10.13;2.33;;;13.80;99.90;;;;;;4956326;28;20031;-79
2023/04/12 12:26:05;;;;;;;8.25;1.92;;;13.70;99.90;;;;;;4963196;28;20142;-79
2023/04/12 12:28:39;;;;;;;10.68;2.00;;;13.90;99.90;;;;;;4962362;28;20073;-79
2023/04/12 12:31:06;;;;;;;7.80;2.05;;;14.00;99.90;;;;;;4944371;28;20546;-79
2023/04/12 12:33:41;;;;;;;8.57;1.88;;;14.00;99.90;;;;;;4966075;28;20518;-79
2023/04/12 12:36:09;;;;;;;11.75;2.38;;;13.90;99.90;;;;;;4968969;28;20077;-78
2023/04/12 12:38:39;;;;;;;11.45;2.88;;;13.80;99.90;;;;;;4979827;28;20399;-78
2023/04/12 12:41:22;;;;;;;9.32;2.08;;;13.70;99.90;;;;;;4976543;28;20043;-77
2023/04/12 12:43:51;;;;;;;7.75;1.77;;;13.60;99.90;;;;;;4980518;28;20051;-77
2023/04/12 12:46:18;;;;;;;10.38;1.73;;;13.70;99.90;;;;;;4980324;28;20050;-79
2023/04/12 12:48:46;;;;;;;10.38;2.50;;;13.80;99.90;;;;;;4969811;28;20101;-78
2023/04/12 12:51:13;;;;;;;9.13;2.35;;;13.90;99.90;;;;;;4969440;28;20706;-78
2023/04/12 12:53:40;;;;;;;8.93;2.25;;;14.00;99.90;;;;;;4987488;28;20042;-78